Time;durP1;ratioP1;P1;durP2;ratioP2;P2;SDS_P1;SDS_P2;PMS_P1;PMS_P2;Temp;Humidity;BMP_temperature;BMP_pressure;BME280_temperature;BME280_humidity;BME280_pressure;Samples;Min_cycle;Max_cycle;Signal;HPM_P1;HPM_P2
2021/05/24 00:01:03;;;;;;;0.28;0.28;;;13.60;76.90;;;;;;5053538;28;20025;-74
2021/05/24 00:03:28;;;;;;;0.40;0.40;;;13.60;77.50;;;;;;5036202;28;20036;-74
2021/05/24 00:05:54;;;;;;;0.50;0.32;;;13.70;77.00;;;;;;5054076;28;20021;-74
2021/05/24 00:08:20;;;;;;;0.28;0.28;;;13.60;76.90;;;;;;5054055;28;20057;-73
2021/05/24 00:10:47;;;;;;;0.28;0.28;;;13.60;76.90;;;;;;5053197;28;20043;-72
2021/05/24 00:13:14;;;;;;;0.20;0.20;;;13.70;76.90;;;;;;5035874;28;20043;-73
2021/05/24 00:15:44;;;;;;;0.52;0.43;;;13.70;76.80;;;;;;5053223;28;20428;-73
2021/05/24 00:18:11;;;;;;;6.07;0.82;;;13.70;76.80;;;;;;5054122;28;20420;-73
2021/05/24 00:20:39;;;;;;;0.30;0.30;;;13.60;76.90;;;;;;5035903;28;20052;-74
2021/05/24 00:23:05;;;;;;;0.10;0.10;;;13.70;77.00;;;;;;5053694;28;20408;-74
2021/05/24 00:25:31;;;;;;;0.30;0.30;;;13.60;76.90;;;;;;5053823;28;20457;-74
2021/05/24 00:27:58;;;;;;;0.20;0.20;;;13.60;76.90;;;;;;5053156;28;20052;-75
2021/05/24 00:30:26;;;;;;;0.10;0.10;;;13.60;76.90;;;;;;5053745;28;20013;-73
2021/05/24 00:32:54;;;;;;;0.20;0.20;;;13.60;76.80;;;;;;5053695;28;20400;-73
2021/05/24 00:35:20;;;;;;;0.20;0.13;;;13.70;76.90;;;;;;5053517;28;20021;-74
2021/05/24 00:37:45;;;;;;;0.20;0.20;;;13.70;76.90;;;;;;5035561;28;20493;-75
2021/05/24 00:40:14;;;;;;;0.32;0.30;;;13.60;76.80;;;;;;5053536;28;20521;-75
2021/05/24 00:42:43;;;;;;;0.30;0.30;;;13.70;76.80;;;;;;5052530;28;20037;-75
2021/05/24 00:45:09;;;;;;;0.30;0.30;;;13.60;76.80;;;;;;5053416;28;20052;-74
2021/05/24 00:47:35;;;;;;;0.30;0.30;;;13.60;76.90;;;;;;5053441;28;20114;-73
2021/05/24 00:50:02;;;;;;;0.30;0.30;;;13.70;76.90;;;;;;5053313;28;20465;-73
2021/05/24 00:52:27;;;;;;;0.20;0.20;;;13.70;76.80;;;;;;5053260;28;20051;-75
2021/05/24 00:54:53;;;;;;;0.10;0.10;;;13.70;76.80;;;;;;5053423;28;20047;-75
2021/05/24 00:57:18;;;;;;;0.30;0.25;;;13.70;76.80;;;;;;5052890;28;20053;-76
2021/05/24 00:59:44;;;;;;;0.32;0.32;;;13.70;76.80;;;;;;5035076;28;20029;-74
2021/05/24 01:02:10;;;;;;;0.20;0.20;;;13.70;76.70;;;;;;5052952;28;20474;-74
2021/05/24 01:04:36;;;;;;;0.30;0.30;;;13.70;76.70;;;;;;5053322;28;20036;-74
2021/05/24 01:07:04;;;;;;;0.30;0.28;;;13.70;76.70;;;;;;5053408;28;20478;-75
2021/05/24 01:09:30;;;;;;;0.40;0.40;;;13.80;76.70;;;;;;5053211;28;20354;-75
2021/05/24 01:11:55;;;;;;;0.13;0.13;;;13.80;76.60;;;;;;5052758;28;20449;-75
2021/05/24 01:14:21;;;;;;;0.30;0.28;;;13.80;76.70;;;;;;5034658;28;20067;-75
2021/05/24 01:16:51;;;;;;;0.10;0.10;;;13.80;76.70;;;;;;5053151;28;20025;-75
2021/05/24 01:19:17;;;;;;;0.20;0.20;;;13.80;76.70;;;;;;5035137;28;20024;-75
2021/05/24 01:21:43;;;;;;;0.20;0.20;;;13.80;76.70;;;;;;5052978;28;20017;-75
2021/05/24 01:24:09;;;;;;;1.15;0.47;;;13.80;76.60;;;;;;5052795;28;20429;-74
2021/05/24 01:26:35;;;;;;;1.25;0.30;;;13.80;76.70;;;;;;5052564;28;20029;-75
2021/05/24 01:29:01;;;;;;;0.38;0.30;;;13.80;76.70;;;;;;5052963;28;20543;-74
2021/05/24 01:31:26;;;;;;;0.20;0.20;;;13.80;76.80;;;;;;5052924;28;20025;-75
2021/05/24 01:33:56;;;;;;;0.20;0.20;;;13.80;76.70;;;;;;5052940;28;20408;-74
2021/05/24 01:36:22;;;;;;;0.10;0.10;;;13.80;76.70;;;;;;5052765;28;20477;-73
2021/05/24 01:38:47;;;;;;;0.20;0.20;;;13.90;76.80;;;;;;5034954;28;20120;-75
2021/05/24 01:41:13;;;;;;;0.10;0.10;;;13.90;76.70;;;;;;5052460;28;20021;-74
2021/05/24 01:43:39;;;;;;;0.30;0.30;;;13.80;76.70;;;;;;5052737;28;20108;-74
2021/05/24 01:46:05;;;;;;;0.20;0.20;;;13.90;76.70;;;;;;5052800;28;20100;-74
2021/05/24 01:48:32;;;;;;;0.20;0.10;;;13.80;76.70;;;;;;5052921;28;20021;-75
2021/05/24 01:50:58;;;;;;;0.70;0.40;;;13.80;76.70;;;;;;5034839;28;20025;-75
2021/05/24 01:53:24;;;;;;;0.17;0.17;;;13.80;76.70;;;;;;5034829;28;20036;-74
2021/05/24 01:55:50;;;;;;;0.15;0.15;;;13.80;76.80;;;;;;5054677;28;20010;-75
2021/05/24 01:58:17;;;;;;;0.30;0.30;;;13.80;76.80;;;;;;5056555;28;20078;-73
2021/05/24 02:00:43;;;;;;;0.10;0.10;;;13.80;76.90;;;;;;5056633;28;20023;-75
2021/05/24 02:03:08;;;;;;;0.17;0.17;;;13.80;76.90;;;;;;5056578;28;20392;-75
2021/05/24 02:05:34;;;;;;;0.30;0.30;;;13.80;77.00;;;;;;5038553;28;20029;-75
2021/05/24 02:08:00;;;;;;;0.17;0.17;;;13.70;76.90;;;;;;5056303;28;20073;-75
2021/05/24 02:10:28;;;;;;;0.20;0.20;;;13.70;76.90;;;;;;5055925;28;20430;-75
2021/05/24 02:12:55;;;;;;;1.15;0.30;;;13.70;77.00;;;;;;5054978;28;20036;-74
2021/05/24 02:15:24;;;;;;;0.40;0.40;;;13.60;76.90;;;;;;5055900;28;20021;-74
2021/05/24 02:17:50;;;;;;;0.75;0.30;;;13.70;77.00;;;;;;5037835;28;20477;-75
2021/05/24 02:20:19;;;;;;;0.40;0.25;;;13.60;77.10;;;;;;5055847;28;20017;-74
2021/05/24 02:22:44;;;;;;;0.30;0.30;;;13.60;77.10;;;;;;5038007;28;20029;-74
2021/05/24 02:25:11;;;;;;;0.20;0.20;;;13.60;77.10;;;;;;5055628;28;20079;-73
2021/05/24 02:27:37;;;;;;;0.20;0.20;;;13.60;77.10;;;;;;5056027;28;20027;-73
2021/05/24 02:30:05;;;;;;;0.20;0.20;;;13.60;77.10;;;;;;5055962;28;20092;-73
2021/05/24 02:32:30;;;;;;;0.28;0.10;;;13.60;77.10;;;;;;5055770;28;20021;-73
2021/05/24 02:34:56;;;;;;;0.20;0.20;;;13.60;77.10;;;;;;5055963;28;20493;-73
2021/05/24 02:37:23;;;;;;;0.35;0.32;;;13.60;77.10;;;;;;5034434;28;20042;-75
2021/05/24 02:39:49;;;;;;;0.17;0.17;;;13.50;77.10;;;;;;5035645;28;20398;-76
2021/05/24 02:42:14;;;;;;;0.32;0.32;;;13.60;77.20;;;;;;5035807;28;20470;-74
2021/05/24 02:44:40;;;;;;;0.30;0.30;;;13.60;77.10;;;;;;5034623;28;20029;-74
2021/05/24 02:47:05;;;;;;;0.10;0.10;;;13.50;77.10;;;;;;5034614;28;20140;-74
2021/05/24 02:49:31;;;;;;;0.25;0.25;;;13.50;77.10;;;;;;5035538;28;20036;-74
2021/05/24 02:51:56;;;;;;;0.10;0.10;;;13.50;77.10;;;;;;5035746;28;20025;-74
2021/05/24 02:54:22;;;;;;;0.20;0.20;;;13.50;77.10;;;;;;5033762;28;20163;-74
2021/05/24 02:56:47;;;;;;;0.35;0.35;;;13.50;77.20;;;;;;5035546;28;20543;-74
2021/05/24 02:59:13;;;;;;;0.20;0.20;;;13.50;77.20;;;;;;5035507;28;20068;-74
2021/05/24 03:01:38;;;;;;;0.10;0.10;;;13.50;77.20;;;;;;5035434;28;20022;-74
2021/05/24 03:04:06;;;;;;;0.22;0.22;;;13.50;77.20;;;;;;5035158;28;20065;-74
2021/05/24 03:06:33;;;;;;;0.22;0.22;;;13.50;77.30;;;;;;5035256;28;20382;-74
2021/05/24 03:08:59;;;;;;;0.35;0.30;;;13.40;77.20;;;;;;5034680;28;20083;-74
2021/05/24 03:11:24;;;;;;;0.38;0.38;;;13.40;77.30;;;;;;5035259;28;20017;-74
2021/05/24 03:13:50;;;;;;;0.13;0.13;;;13.40;77.20;;;;;;5033924;28;20024;-74
2021/05/24 03:16:17;;;;;;;0.25;0.25;;;13.40;77.30;;;;;;5035285;28;20383;-74
2021/05/24 03:18:42;;;;;;;0.32;0.20;;;13.30;77.30;;;;;;5034982;28;20036;-74
2021/05/24 03:21:08;;;;;;;0.28;0.28;;;13.30;77.30;;;;;;5033769;28;20018;-73
2021/05/24 03:23:34;;;;;;;0.35;0.30;;;13.30;77.30;;;;;;5034531;28;20037;-74
2021/05/24 03:25:59;;;;;;;0.32;0.30;;;13.30;77.40;;;;;;5034897;28;20374;-74
2021/05/24 03:28:25;;;;;;;0.25;0.20;;;13.30;77.40;;;;;;5033620;28;20492;-75
2021/05/24 03:30:50;;;;;;;0.30;0.30;;;13.30;77.30;;;;;;5034900;28;20438;-75
2021/05/24 03:33:16;;;;;;;0.45;0.32;;;13.30;77.40;;;;;;5034667;28;20041;-74
2021/05/24 03:35:42;;;;;;;0.25;0.20;;;13.30;77.40;;;;;;5034788;28;20027;-75
2021/05/24 03:38:07;;;;;;;0.32;0.32;;;13.30;77.40;;;;;;5048545;28;20053;-73
2021/05/24 03:40:33;;;;;;;0.20;0.20;;;13.30;77.40;;;;;;5054629;28;20017;-73
2021/05/24 03:42:59;;;;;;;1.48;0.40;;;13.30;77.50;;;;;;5054551;28;20032;-74
2021/05/24 03:45:27;;;;;;;0.63;0.30;;;13.30;77.40;;;;;;5054512;28;20028;-73
2021/05/24 03:47:54;;;;;;;0.30;0.30;;;13.30;77.40;;;;;;5036530;28;20040;-74
2021/05/24 03:50:20;;;;;;;0.25;0.25;;;13.20;77.40;;;;;;5054199;28;20027;-74
2021/05/24 03:52:46;;;;;;;0.20;0.20;;;13.30;77.50;;;;;;5053983;28;20048;-74
2021/05/24 03:55:17;;;;;;;0.20;0.20;;;13.20;77.50;;;;;;5054388;28;20481;-74
2021/05/24 03:57:43;;;;;;;0.28;0.28;;;13.30;77.50;;;;;;5054352;28;20024;-74
2021/05/24 04:00:10;;;;;;;0.30;0.30;;;13.20;77.50;;;;;;5054316;28;20039;-73
2021/05/24 04:02:36;;;;;;;0.35;0.28;;;13.20;77.50;;;;;;5036188;28;20033;-74
2021/05/24 04:05:10;;;;;;;0.63;0.63;;;13.20;77.50;;;;;;5054127;28;20035;-74
2021/05/24 04:07:36;;;;;;;0.20;0.20;;;13.20;77.50;;;;;;5035788;28;20451;-73
2021/05/24 04:10:02;;;;;;;0.17;0.17;;;13.20;77.50;;;;;;5054129;28;20090;-73
2021/05/24 04:12:28;;;;;;;0.28;0.28;;;13.20;77.50;;;;;;5035263;28;20488;-74
2021/05/24 04:14:54;;;;;;;0.30;0.20;;;13.20;77.60;;;;;;5036041;28;20111;-75
2021/05/24 04:17:22;;;;;;;0.30;0.30;;;13.20;77.60;;;;;;5053353;28;20083;-74
2021/05/24 04:19:49;;;;;;;0.25;0.25;;;13.20;77.70;;;;;;5053832;28;20017;-75
2021/05/24 04:22:14;;;;;;;0.22;0.22;;;13.20;77.70;;;;;;5035753;28;20040;-74
2021/05/24 04:24:40;;;;;;;0.50;0.20;;;13.20;77.70;;;;;;5035957;28;20031;-74
2021/05/24 04:27:05;;;;;;;0.32;0.32;;;13.20;77.70;;;;;;5053665;28;20087;-75
2021/05/24 04:29:31;;;;;;;0.20;0.10;;;13.10;77.60;;;;;;5035695;28;20020;-74
2021/05/24 04:31:56;;;;;;;0.20;0.20;;;13.10;77.70;;;;;;5035856;28;20017;-74
2021/05/24 04:34:22;;;;;;;0.20;0.20;;;13.10;77.70;;;;;;5053260;28;20025;-75
2021/05/24 04:36:47;;;;;;;0.20;0.20;;;13.10;77.80;;;;;;5053377;28;20120;-76
2021/05/24 04:39:13;;;;;;;0.30;0.30;;;13.10;77.70;;;;;;5053631;28;20457;-74
2021/05/24 04:41:38;;;;;;;0.20;0.20;;;13.10;77.70;;;;;;5053403;28;20385;-75
2021/05/24 04:44:37;;;;;;;0.20;0.20;;;13.10;77.80;;;;;;5053320;28;20450;-74
2021/05/24 04:46:58;;;;;;;0.38;0.38;;;13.10;77.80;;;;;;5049385;28;20029;-75
2021/05/24 04:49:24;;;;;;;0.50;0.38;;;13.10;77.80;;;;;;5035036;28;20027;-75
2021/05/24 04:51:50;;;;;;;0.25;0.20;;;13.10;77.80;;;;;;5053394;28;20029;-75
2021/05/24 04:54:15;;;;;;;0.35;0.35;;;13.10;77.80;;;;;;5035299;28;20021;-74
2021/05/24 04:56:41;;;;;;;0.40;0.35;;;13.10;77.80;;;;;;5053193;28;20033;-74
2021/05/24 04:59:06;;;;;;;0.30;0.30;;;13.10;77.70;;;;;;5053167;28;20458;-75
2021/05/24 05:01:32;;;;;;;0.30;0.30;;;13.10;77.70;;;;;;5035263;28;20071;-74
2021/05/24 05:03:58;;;;;;;0.20;0.20;;;13.10;77.70;;;;;;5052671;28;20533;-73
2021/05/24 05:06:23;;;;;;;0.20;0.20;;;13.10;77.70;;;;;;5053084;28;20504;-75
2021/05/24 05:08:49;;;;;;;0.20;0.20;;;13.10;77.70;;;;;;5053146;28;20025;-75
2021/05/24 05:11:14;;;;;;;0.30;0.10;;;13.10;77.70;;;;;;5052945;28;20097;-76
2021/05/24 05:13:41;;;;;;;0.10;0.10;;;13.20;77.70;;;;;;5035189;28;20029;-74
2021/05/24 05:16:08;;;;;;;0.10;0.10;;;13.20;77.80;;;;;;5052900;28;20025;-73
2021/05/24 05:18:34;;;;;;;0.20;0.20;;;13.20;77.90;;;;;;5052597;28;20032;-73
2021/05/24 05:21:00;;;;;;;0.28;0.28;;;13.20;77.80;;;;;;5052907;28;20025;-73
2021/05/24 05:23:25;;;;;;;0.35;0.30;;;13.30;77.80;;;;;;5052804;28;20036;-74
2021/05/24 05:25:51;;;;;;;0.20;0.20;;;13.30;77.80;;;;;;5053007;28;20044;-75
2021/05/24 05:28:16;;;;;;;0.15;0.10;;;13.30;77.70;;;;;;5035051;28;20104;-75
2021/05/24 05:30:42;;;;;;;0.32;0.20;;;13.40;77.70;;;;;;5055226;28;20032;-76
2021/05/24 05:33:08;;;;;;;0.20;0.20;;;13.40;77.60;;;;;;5038619;28;20021;-75
2021/05/24 05:35:34;;;;;;;0.68;0.68;;;13.40;77.60;;;;;;5057017;28;20517;-77
2021/05/24 05:38:00;;;;;;;0.20;0.20;;;13.40;77.60;;;;;;5038906;28;20467;-77
2021/05/24 05:40:25;;;;;;;0.15;0.15;;;13.50;77.70;;;;;;5056876;28;20017;-77
2021/05/24 05:42:51;;;;;;;0.28;0.28;;;13.50;77.60;;;;;;5056845;28;20033;-76
2021/05/24 05:45:17;;;;;;;0.17;0.17;;;13.60;77.60;;;;;;5056776;28;20014;-76
2021/05/24 05:47:43;;;;;;;0.20;0.20;;;13.60;77.50;;;;;;5056290;28;20494;-79
2021/05/24 05:50:10;;;;;;;0.20;0.20;;;13.60;77.50;;;;;;5056755;28;20079;-73
2021/05/24 05:52:36;;;;;;;0.30;0.30;;;13.60;77.50;;;;;;5056793;28;20477;-74
2021/05/24 05:55:04;;;;;;;0.52;0.30;;;13.70;77.50;;;;;;5056574;28;20031;-75
2021/05/24 05:57:29;;;;;;;0.25;0.25;;;13.70;77.40;;;;;;5034932;28;20017;-74
2021/05/24 05:59:55;;;;;;;0.30;0.30;;;13.70;77.50;;;;;;5053782;28;20465;-74
2021/05/24 06:02:20;;;;;;;0.10;0.10;;;13.80;77.50;;;;;;5053285;28;20021;-74
2021/05/24 06:04:46;;;;;;;0.20;0.20;;;13.80;77.50;;;;;;5035885;28;20029;-74
2021/05/24 06:07:15;;;;;;;0.50;0.30;;;13.90;77.50;;;;;;5035676;28;20032;-74
2021/05/24 06:09:41;;;;;;;0.20;0.20;;;13.90;77.30;;;;;;5053282;28;20501;-74
2021/05/24 06:12:08;;;;;;;0.32;0.20;;;14.00;77.30;;;;;;5053530;28;20389;-75
2021/05/24 06:14:34;;;;;;;0.20;0.20;;;14.10;77.20;;;;;;5052522;28;20033;-74
2021/05/24 06:16:59;;;;;;;0.70;0.30;;;14.10;77.20;;;;;;5053078;28;20017;-74
2021/05/24 06:19:25;;;;;;;0.13;0.13;;;14.10;77.20;;;;;;5037812;28;20039;-74
2021/05/24 06:21:50;;;;;;;0.10;0.10;;;14.20;77.30;;;;;;5033481;28;20021;-73
2021/05/24 06:24:16;;;;;;;0.75;0.15;;;14.20;77.20;;;;;;5054564;28;20147;-73
2021/05/24 06:26:41;;;;;;;0.30;0.30;;;14.20;77.30;;;;;;5038235;28;20639;-73
2021/05/24 06:29:07;;;;;;;0.20;0.20;;;14.30;77.10;;;;;;5055505;28;20488;-74
2021/05/24 06:31:33;;;;;;;0.30;0.30;;;14.30;77.20;;;;;;5055857;28;20040;-74
2021/05/24 06:33:58;;;;;;;0.00;0.00;;;14.30;77.30;;;;;;5055983;28;20056;-73
2021/05/24 06:36:24;;;;;;;0.30;0.28;;;14.30;77.20;;;;;;5055592;28;20025;-74
2021/05/24 06:38:50;;;;;;;1.45;0.28;;;14.30;77.30;;;;;;5055774;28;20096;-73
2021/05/24 06:41:16;;;;;;;0.17;0.15;;;14.30;77.30;;;;;;5055217;28;20027;-73
2021/05/24 06:43:42;;;;;;;0.10;0.10;;;14.30;77.30;;;;;;5055680;28;20384;-75
2021/05/24 06:46:07;;;;;;;0.25;0.25;;;14.30;77.40;;;;;;5055053;28;20022;-73
2021/05/24 06:48:33;;;;;;;0.20;0.15;;;14.20;77.30;;;;;;5055765;28;20134;-73
2021/05/24 06:50:59;;;;;;;0.10;0.10;;;14.20;77.50;;;;;;5055523;28;20473;-73
2021/05/24 06:53:24;;;;;;;0.28;0.28;;;14.10;77.50;;;;;;5055439;28;20040;-74
2021/05/24 06:55:50;;;;;;;0.30;0.30;;;14.10;77.50;;;;;;5037575;28;20024;-73
2021/05/24 06:58:15;;;;;;;0.30;0.30;;;14.10;77.60;;;;;;5055588;28;20024;-74
2021/05/24 07:00:43;;;;;;;0.20;0.20;;;14.00;77.60;;;;;;5054965;28;20091;-75
2021/05/24 07:03:09;;;;;;;0.30;0.30;;;14.00;77.60;;;;;;5037419;28;20111;-76
2021/05/24 07:05:35;;;;;;;0.20;0.20;;;14.00;77.60;;;;;;5037317;28;20018;-75
2021/05/24 07:08:01;;;;;;;0.20;0.20;;;14.00;77.60;;;;;;5037375;28;20025;-76
2021/05/24 07:10:27;;;;;;;0.10;0.10;;;14.00;77.50;;;;;;5037445;28;20408;-76
2021/05/24 07:12:52;;;;;;;0.10;0.10;;;13.90;77.50;;;;;;5055214;28;20469;-76
2021/05/24 07:15:18;;;;;;;0.10;0.10;;;13.90;77.80;;;;;;5054723;28;20075;-75
2021/05/24 07:17:44;;;;;;;0.50;0.17;;;13.80;77.90;;;;;;5055101;28;20048;-76
2021/05/24 07:20:10;;;;;;;0.32;0.32;;;13.60;78.10;;;;;;5037052;28;20029;-76
2021/05/24 07:22:38;;;;;;;0.30;0.30;;;13.50;78.50;;;;;;5055013;28;20056;-75
2021/05/24 07:25:06;;;;;;;0.40;0.30;;;13.40;78.60;;;;;;5037189;28;20021;-75
2021/05/24 07:27:31;;;;;;;0.10;0.10;;;13.30;78.90;;;;;;5037058;28;20029;-75
2021/05/24 07:29:57;;;;;;;0.30;0.30;;;13.20;79.00;;;;;;5054480;28;20078;-75
2021/05/24 07:32:23;;;;;;;0.30;0.30;;;13.20;78.90;;;;;;5054677;28;20369;-77
2021/05/24 07:34:48;;;;;;;0.32;0.32;;;13.20;79.00;;;;;;5036963;28;20362;-76
2021/05/24 07:37:14;;;;;;;0.35;0.28;;;13.10;79.00;;;;;;5036655;28;20044;-78
2021/05/24 07:39:39;;;;;;;0.22;0.22;;;13.00;79.00;;;;;;5036927;28;20036;-77
2021/05/24 07:42:06;;;;;;;0.20;0.20;;;13.00;79.20;;;;;;5054402;28;20427;-77
2021/05/24 07:44:33;;;;;;;0.43;0.30;;;12.80;79.40;;;;;;5036214;28;20075;-79
2021/05/24 07:47:00;;;;;;;0.28;0.28;;;12.70;79.70;;;;;;5054541;28;20070;-80
2021/05/24 07:49:26;;;;;;;0.22;0.22;;;12.70;79.80;;;;;;5036657;28;20029;-79
2021/05/24 07:51:52;;;;;;;0.10;0.10;;;12.60;80.00;;;;;;5054087;28;20032;-80
2021/05/24 07:54:18;;;;;;;0.40;0.40;;;12.50;80.10;;;;;;5036035;28;20014;-77
2021/05/24 07:56:44;;;;;;;0.30;0.30;;;12.50;80.20;;;;;;5054434;28;20044;-79
2021/05/24 07:59:10;;;;;;;0.32;0.32;;;12.50;80.20;;;;;;5036066;28;20060;-77
2021/05/24 08:01:36;;;;;;;0.15;0.15;;;12.40;80.30;;;;;;5036491;28;20021;-76
2021/05/24 08:04:01;;;;;;;0.28;0.28;;;12.50;80.40;;;;;;5054205;28;20457;-76
2021/05/24 08:06:27;;;;;;;0.25;0.20;;;12.60;80.30;;;;;;5054045;28;20017;-75
2021/05/24 08:08:52;;;;;;;0.47;0.47;;;12.70;80.10;;;;;;5054029;28;20048;-75
2021/05/24 08:11:18;;;;;;;0.30;0.30;;;12.80;80.00;;;;;;5054178;28;20020;-74
2021/05/24 08:13:44;;;;;;;0.28;0.28;;;12.80;80.00;;;;;;5052927;28;20154;-74
2021/05/24 08:16:13;;;;;;;0.30;0.30;;;12.70;80.20;;;;;;5032265;28;20032;-74
2021/05/24 08:18:39;;;;;;;0.55;0.55;;;12.80;80.20;;;;;;5054050;28;20017;-75
2021/05/24 08:21:06;;;;;;;0.43;0.43;;;12.80;80.20;;;;;;5054019;28;20535;-75
2021/05/24 08:23:32;;;;;;;0.20;0.20;;;12.80;80.20;;;;;;5053725;28;20401;-74
2021/05/24 08:25:58;;;;;;;0.28;0.20;;;12.80;80.40;;;;;;5054045;28;20017;-74
2021/05/24 08:28:24;;;;;;;0.28;0.28;;;12.70;80.50;;;;;;5053362;28;20090;-76
2021/05/24 08:30:49;;;;;;;0.28;0.28;;;12.70;80.60;;;;;;5053503;28;20465;-75
2021/05/24 08:33:15;;;;;;;0.20;0.20;;;12.70;80.60;;;;;;5031716;28;20033;-76
2021/05/24 08:35:40;;;;;;;0.25;0.25;;;12.70;80.70;;;;;;5053723;28;20013;-76
2021/05/24 08:38:06;;;;;;;0.45;0.35;;;12.70;80.70;;;;;;5053448;28;20493;-76
2021/05/24 08:40:31;;;;;;;0.50;0.50;;;12.70;80.80;;;;;;5053623;28;20021;-74
2021/05/24 08:42:58;;;;;;;0.32;0.32;;;12.70;80.80;;;;;;5035141;28;20079;-74
2021/05/24 08:45:29;;;;;;;0.32;0.32;;;12.80;80.90;;;;;;5035748;28;20029;-74
2021/05/24 08:47:54;;;;;;;0.43;0.30;;;12.80;81.00;;;;;;5053694;28;20024;-75
2021/05/24 08:50:20;;;;;;;0.30;0.30;;;12.80;80.90;;;;;;5053558;28;20024;-74
2021/05/24 08:52:46;;;;;;;0.22;0.22;;;12.80;80.80;;;;;;5053602;28;20099;-74
2021/05/24 08:55:13;;;;;;;0.50;0.50;;;12.80;80.90;;;;;;5053381;28;20060;-76
2021/05/24 08:57:40;;;;;;;0.70;0.40;;;12.80;81.00;;;;;;5052920;28;20513;-74
2021/05/24 09:00:09;;;;;;;0.30;0.30;;;12.80;81.00;;;;;;5053352;28;20056;-74
2021/05/24 09:02:39;;;;;;;0.98;0.40;;;12.70;81.20;;;;;;5053133;28;20043;-74
2021/05/24 09:05:08;;;;;;;0.30;0.30;;;12.70;81.40;;;;;;5035179;28;20369;-74
2021/05/24 09:07:53;;;;;;;1.00;0.47;;;12.70;81.50;;;;;;5052957;28;20033;-74
2021/05/24 09:10:21;;;;;;;0.30;0.30;;;12.70;81.40;;;;;;5052783;28;20028;-75
2021/05/24 09:12:47;;;;;;;0.30;0.30;;;12.70;82.20;;;;;;5053139;28;20473;-75
2021/05/24 09:15:15;;;;;;;0.20;0.20;;;12.70;81.70;;;;;;5053032;28;20134;-75
2021/05/24 09:17:44;;;;;;;1.13;0.60;;;12.60;81.60;;;;;;5052990;28;20071;-74
2021/05/24 09:20:29;;;;;;;0.60;0.60;;;12.50;81.60;;;;;;5053054;28;20018;-77
2021/05/24 09:23:15;;;;;;;0.32;0.30;;;12.50;81.90;;;;;;5052997;28;20044;-77
2021/05/24 09:25:52;;;;;;;0.32;0.32;;;12.50;81.90;;;;;;5052388;28;20032;-77
2021/05/24 09:28:33;;;;;;;0.30;0.30;;;12.50;82.00;;;;;;5035075;28;20017;-75
2021/05/24 09:31:00;;;;;;;0.90;0.65;;;12.50;81.80;;;;;;5053061;28;20017;-76
2021/05/24 09:33:26;;;;;;;0.30;0.30;;;12.60;81.90;;;;;;5052984;28;20033;-74
2021/05/24 09:35:53;;;;;;;1.13;0.20;;;12.60;81.90;;;;;;5052946;28;20025;-76
2021/05/24 09:38:24;;;;;;;0.60;0.60;;;12.70;81.80;;;;;;5052827;28;20053;-78
2021/05/24 09:40:55;;;;;;;1.23;0.50;;;12.80;81.60;;;;;;5052504;28;20032;-77
2021/05/24 09:43:28;;;;;;;0.43;0.30;;;12.80;81.30;;;;;;5052742;28;20116;-75
2021/05/24 09:46:09;;;;;;;0.30;0.30;;;13.00;81.30;;;;;;5052805;28;20523;-75
2021/05/24 09:48:35;;;;;;;0.57;0.40;;;13.10;81.10;;;;;;5052809;28;20049;-75
2021/05/24 09:51:04;;;;;;;0.57;0.47;;;13.10;81.10;;;;;;5052663;28;20017;-75
2021/05/24 09:53:29;;;;;;;0.30;0.30;;;13.20;80.90;;;;;;5052272;28;20045;-76
2021/05/24 09:56:05;;;;;;;1.00;0.30;;;13.30;80.90;;;;;;5052761;28;20028;-76
2021/05/24 09:58:31;;;;;;;0.57;0.38;;;13.40;80.70;;;;;;5052661;28;20033;-75
2021/05/24 10:01:14;;;;;;;0.30;0.30;;;13.40;80.80;;;;;;5052666;28;20025;-74
2021/05/24 10:03:41;;;;;;;0.40;0.40;;;13.30;80.80;;;;;;5052476;28;20036;-75
2021/05/24 10:06:07;;;;;;;0.32;0.32;;;13.30;81.10;;;;;;5034405;28;20488;-76
2021/05/24 10:08:33;;;;;;;0.50;0.47;;;13.20;81.20;;;;;;5051971;28;20060;-78
2021/05/24 10:11:00;;;;;;;0.30;0.30;;;13.10;81.40;;;;;;5052563;28;20060;-76
2021/05/24 10:13:28;;;;;;;0.60;0.60;;;13.00;81.50;;;;;;5052536;28;20084;-76
2021/05/24 10:15:59;;;;;;;0.40;0.40;;;12.90;81.60;;;;;;5053537;28;20025;-74
2021/05/24 10:18:25;;;;;;;1.02;0.40;;;13.00;81.90;;;;;;5056351;28;20033;-75
2021/05/24 10:20:52;;;;;;;0.32;0.32;;;12.90;81.70;;;;;;5038374;28;20017;-75
2021/05/24 10:23:20;;;;;;;0.30;0.30;;;13.00;81.70;;;;;;5055612;28;20087;-76
2021/05/24 10:25:46;;;;;;;0.40;0.40;;;13.10;81.60;;;;;;5056110;28;20025;-74
2021/05/24 10:28:15;;;;;;;0.40;0.40;;;13.20;81.50;;;;;;5056073;28;20373;-75
2021/05/24 10:30:41;;;;;;;;;;;13.30;81.30;;;;;;5038609;28;20434;-76
2021/05/24 10:33:12;;;;;;;0.43;0.43;;;13.50;80.90;;;;;;5054929;28;19959;-74
2021/05/24 10:35:42;;;;;;;0.30;0.30;;;13.70;80.50;;;;;;5055924;28;20025;-73
2021/05/24 10:38:27;;;;;;;0.20;0.20;;;13.90;80.30;;;;;;5055107;28;20091;-74
2021/05/24 10:41:05;;;;;;;0.30;0.30;;;14.10;80.00;;;;;;5031694;28;20036;-75
2021/05/24 10:43:43;;;;;;;0.43;0.43;;;14.30;79.60;;;;;;5053870;28;20032;-75
2021/05/24 10:46:24;;;;;;;0.55;0.55;;;14.50;79.70;;;;;;5055694;28;20027;-74
2021/05/24 10:49:20;;;;;;;0.22;0.22;;;14.60;79.40;;;;;;5055602;28;20052;-75
2021/05/24 10:51:53;;;;;;;0.50;0.50;;;14.70;79.40;;;;;;5054209;28;20037;-74
2021/05/24 10:54:21;;;;;;;0.32;0.30;;;14.70;79.70;;;;;;5053723;28;20025;-75
2021/05/24 10:57:02;;;;;;;0.40;0.40;;;14.60;79.90;;;;;;5053506;28;20051;-75
2021/05/24 10:59:39;;;;;;;0.40;0.40;;;14.50;80.20;;;;;;5054474;28;20037;-75
2021/05/24 11:02:23;;;;;;;0.50;0.50;;;14.30;80.50;;;;;;5037181;28;20366;-74
2021/05/24 11:05:00;;;;;;;0.40;0.40;;;14.10;81.00;;;;;;5055096;28;20032;-76
2021/05/24 11:07:48;;;;;;;0.45;0.45;;;14.00;81.40;;;;;;5054929;28;20529;-74
2021/05/24 11:10:19;;;;;;;0.55;0.45;;;13.90;81.50;;;;;;5055313;28;20473;-74
2021/05/24 11:12:46;;;;;;;0.38;0.38;;;13.70;81.80;;;;;;5054678;28;20063;-74
2021/05/24 11:15:16;;;;;;;0.50;0.50;;;13.60;82.10;;;;;;5051491;28;20056;-75
2021/05/24 11:18:00;;;;;;;0.93;0.75;;;13.50;82.50;;;;;;5055217;28;20017;-75
2021/05/24 11:20:26;;;;;;;0.40;0.40;;;13.40;82.70;;;;;;5054856;28;20028;-76
2021/05/24 11:26:21;;;;;;;0.30;0.30;;;13.60;82.60;;;;;;5054938;28;20037;-74
2021/05/24 11:29:00;;;;;;;0.40;0.40;;;13.80;82.30;;;;;;5036894;28;20223;-73
2021/05/24 11:31:36;;;;;;;0.30;0.30;;;13.90;82.20;;;;;;5054007;28;20028;-75
2021/05/24 11:34:03;;;;;;;0.20;0.20;;;14.00;82.00;;;;;;5055119;28;20112;-75
2021/05/24 11:36:28;;;;;;;0.43;0.20;;;13.90;82.30;;;;;;5054301;28;20095;-76
2021/05/24 11:39:15;;;;;;;0.45;0.38;;;13.90;82.20;;;;;;5052701;28;20477;-74
2021/05/24 11:42:04;;;;;;;0.40;0.40;;;13.90;82.30;;;;;;5052387;28;20493;-75
2021/05/24 11:44:51;;;;;;;0.40;0.25;;;14.00;82.40;;;;;;5054583;28;20078;-75
2021/05/24 11:47:20;;;;;;;0.25;0.25;;;14.00;82.30;;;;;;5054500;28;20048;-76
2021/05/24 11:49:51;;;;;;;0.20;0.20;;;14.10;82.10;;;;;;5054002;28;20043;-75
2021/05/24 11:52:24;;;;;;;0.40;0.40;;;14.30;81.90;;;;;;5054385;28;20071;-74
2021/05/24 11:54:51;;;;;;;0.50;0.50;;;14.50;81.50;;;;;;5053108;28;20117;-75
2021/05/24 11:57:19;;;;;;;0.20;0.20;;;14.70;80.90;;;;;;5054119;28;20049;-73
2021/05/24 11:59:45;;;;;;;0.30;0.25;;;14.70;80.90;;;;;;5054259;28;20025;-75
2021/05/24 12:02:14;;;;;;;0.20;0.20;;;14.70;81.00;;;;;;5053407;28;20040;-74
2021/05/24 12:04:42;;;;;;;0.40;0.40;;;14.90;80.90;;;;;;5053721;28;20028;-74
2021/05/24 12:07:11;;;;;;;0.20;0.20;;;15.00;80.60;;;;;;5054026;28;20174;-73
2021/05/24 12:09:42;;;;;;;0.40;0.40;;;15.10;80.70;;;;;;5036062;28;20017;-73
2021/05/24 12:12:19;;;;;;;0.20;0.20;;;15.10;80.40;;;;;;5054083;28;20032;-74
2021/05/24 12:14:50;;;;;;;0.10;0.10;;;15.20;80.30;;;;;;5054029;28;20112;-75
2021/05/24 12:17:19;;;;;;;0.85;0.20;;;15.10;80.40;;;;;;5053838;28;20083;-76
2021/05/24 12:19:46;;;;;;;0.10;0.10;;;14.80;80.50;;;;;;5053299;28;20457;-73
2021/05/24 12:22:13;;;;;;;0.13;0.13;;;14.60;81.00;;;;;;5053776;28;20041;-73
2021/05/24 12:24:42;;;;;;;0.30;0.30;;;14.50;81.20;;;;;;5053740;28;20385;-75
2021/05/24 12:27:09;;;;;;;0.53;0.40;;;14.40;81.30;;;;;;5053488;28;20024;-75
2021/05/24 12:29:54;;;;;;;0.15;0.15;;;14.40;81.40;;;;;;5053583;28;20059;-72
2021/05/24 12:32:37;;;;;;;0.20;0.20;;;14.40;81.30;;;;;;5035998;28;20017;-72
2021/05/24 12:35:15;;;;;;;0.20;0.20;;;14.60;80.80;;;;;;5049400;28;20032;-73
2021/05/24 12:37:49;;;;;;;0.17;0.17;;;14.80;80.40;;;;;;5053481;28;20064;-72
2021/05/24 12:40:15;;;;;;;0.45;0.45;;;15.00;79.90;;;;;;5053226;28;20036;-75
2021/05/24 12:42:41;;;;;;;0.20;0.20;;;15.20;79.50;;;;;;5053343;28;20037;-73
2021/05/24 12:45:12;;;;;;;0.20;0.20;;;15.20;79.20;;;;;;5034672;28;20052;-73
2021/05/24 12:47:38;;;;;;;0.10;0.10;;;15.20;79.20;;;;;;5052761;28;20079;-75
2021/05/24 12:50:15;;;;;;;0.32;0.32;;;15.20;79.50;;;;;;5053379;28;20400;-74
2021/05/24 12:52:41;;;;;;;0.45;0.20;;;15.20;79.60;;;;;;5053333;28;20025;-73
2021/05/24 12:55:19;;;;;;;0.10;0.10;;;15.20;79.60;;;;;;5053157;28;20017;-73